sensor_id;sensor_type;location;lat;lon;timestamp;P1;durP1;ratioP1;P2;durP2;ratioP2
9306;SDS011;4691;47.612;7.610;2023-04-24T00:01:52;2.97;;;0.80;;
9306;SDS011;4691;47.612;7.610;2023-04-24T00:04:17;2.45;;;0.90;;
9306;SDS011;4691;47.612;7.610;2023-04-24T00:06:43;1.77;;;1.00;;
9306;SDS011;4691;47.612;7.610;2023-04-24T00:09:09;1.40;;;0.80;;
9306;SDS011;4691;47.612;7.610;2023-04-24T00:11:37;0.95;;;0.63;;
9306;SDS011;4691;47.612;7.610;2023-04-24T00:14:02;1.70;;;0.90;;
9306;SDS011;4691;47.612;7.610;2023-04-24T00:16:28;1.67;;;0.98;;
9306;SDS011;4691;47.612;7.610;2023-04-24T00:18:53;5.35;;;1.10;;
9306;SDS011;4691;47.612;7.610;2023-04-24T00:21:19;2.35;;;0.90;;
9306;SDS011;4691;47.612;7.610;2023-04-24T00:23:45;1.70;;;0.80;;
9306;SDS011;4691;47.612;7.610;2023-04-24T00:26:10;1.33;;;0.95;;
9306;SDS011;4691;47.612;7.610;2023-04-24T00:28:36;3.00;;;0.80;;
9306;SDS011;4691;47.612;7.610;2023-04-24T00:31:01;1.70;;;0.70;;
9306;SDS011;4691;47.612;7.610;2023-04-24T00:33:26;2.28;;;0.70;;
9306;SDS011;4691;47.612;7.610;2023-04-24T00:35:52;2.45;;;0.75;;
9306;SDS011;4691;47.612;7.610;2023-04-24T00:38:17;0.80;;;0.77;;
9306;SDS011;4691;47.612;7.610;2023-04-24T00:40:43;1.80;;;0.70;;
9306;SDS011;4691;47.612;7.610;2023-04-24T00:43:08;1.58;;;0.70;;
9306;SDS011;4691;47.612;7.610;2023-04-24T00:45:33;4.30;;;0.90;;
9306;SDS011;4691;47.612;7.610;2023-04-24T00:47:59;1.13;;;0.70;;
9306;SDS011;4691;47.612;7.610;2023-04-24T00:50:25;2.28;;;0.70;;
9306;SDS011;4691;47.612;7.610;2023-04-24T00:52:51;1.17;;;0.88;;
9306;SDS011;4691;47.612;7.610;2023-04-24T00:55:17;1.65;;;0.90;;
9306;SDS011;4691;47.612;7.610;2023-04-24T00:57:42;3.20;;;0.93;;
9306;SDS011;4691;47.612;7.610;2023-04-24T01:00:09;0.85;;;0.80;;
9306;SDS011;4691;47.612;7.610;2023-04-24T01:02:38;1.35;;;0.73;;
9306;SDS011;4691;47.612;7.610;2023-04-24T01:05:05;1.52;;;0.70;;
9306;SDS011;4691;47.612;7.610;2023-04-24T01:07:32;1.88;;;0.80;;
9306;SDS011;4691;47.612;7.610;2023-04-24T01:09:58;2.63;;;0.80;;
9306;SDS011;4691;47.612;7.610;2023-04-24T01:12:23;1.30;;;0.90;;
9306;SDS011;4691;47.612;7.610;2023-04-24T01:14:49;1.77;;;0.88;;
9306;SDS011;4691;47.612;7.610;2023-04-24T01:17:14;1.75;;;0.80;;
9306;SDS011;4691;47.612;7.610;2023-04-24T01:19:40;1.95;;;1.02;;
9306;SDS011;4691;47.612;7.610;2023-04-24T01:22:24;2.85;;;0.90;;
9306;SDS011;4691;47.612;7.610;2023-04-24T01:24:49;1.58;;;0.75;;
9306;SDS011;4691;47.612;7.610;2023-04-24T01:27:15;3.45;;;1.05;;
9306;SDS011;4691;47.612;7.610;2023-04-24T01:29:40;5.78;;;0.95;;
9306;SDS011;4691;47.612;7.610;2023-04-24T01:32:05;3.22;;;0.90;;
9306;SDS011;4691;47.612;7.610;2023-04-24T01:34:31;2.92;;;0.93;;
9306;SDS011;4691;47.612;7.610;2023-04-24T01:36:57;4.95;;;1.13;;
9306;SDS011;4691;47.612;7.610;2023-04-24T01:39:22;5.25;;;0.85;;
9306;SDS011;4691;47.612;7.610;2023-04-24T01:41:50;2.08;;;0.90;;
9306;SDS011;4691;47.612;7.610;2023-04-24T01:44:16;3.63;;;1.05;;
9306;SDS011;4691;47.612;7.610;2023-04-24T01:46:42;1.42;;;0.95;;
9306;SDS011;4691;47.612;7.610;2023-04-24T01:49:07;3.25;;;1.00;;
9306;SDS011;4691;47.612;7.610;2023-04-24T01:51:33;3.38;;;1.08;;
9306;SDS011;4691;47.612;7.610;2023-04-24T01:53:58;1.80;;;0.90;;
9306;SDS011;4691;47.612;7.610;2023-04-24T01:56:23;3.25;;;1.27;;
9306;SDS011;4691;47.612;7.610;2023-04-24T01:58:50;4.50;;;0.90;;
9306;SDS011;4691;47.612;7.610;2023-04-24T02:01:18;3.60;;;1.02;;
9306;SDS011;4691;47.612;7.610;2023-04-24T02:03:44;3.92;;;0.98;;
9306;SDS011;4691;47.612;7.610;2023-04-24T02:06:09;1.85;;;0.90;;
9306;SDS011;4691;47.612;7.610;2023-04-24T02:08:34;4.45;;;0.80;;
9306;SDS011;4691;47.612;7.610;2023-04-24T02:11:00;4.80;;;1.48;;
9306;SDS011;4691;47.612;7.610;2023-04-24T02:13:26;2.53;;;1.02;;
9306;SDS011;4691;47.612;7.610;2023-04-24T02:15:52;5.35;;;1.10;;
9306;SDS011;4691;47.612;7.610;2023-04-24T02:19:31;5.05;;;1.10;;
9306;SDS011;4691;47.612;7.610;2023-04-24T02:21:56;2.97;;;1.10;;
9306;SDS011;4691;47.612;7.610;2023-04-24T02:24:21;3.05;;;1.10;;
9306;SDS011;4691;47.612;7.610;2023-04-24T02:26:47;4.85;;;1.17;;
9306;SDS011;4691;47.612;7.610;2023-04-24T02:29:12;4.43;;;1.30;;
9306;SDS011;4691;47.612;7.610;2023-04-24T02:31:37;6.85;;;1.40;;
9306;SDS011;4691;47.612;7.610;2023-04-24T02:34:03;4.35;;;1.00;;
9306;SDS011;4691;47.612;7.610;2023-04-24T02:36:28;2.58;;;0.93;;
9306;SDS011;4691;47.612;7.610;2023-04-24T02:38:53;5.63;;;1.20;;
9306;SDS011;4691;47.612;7.610;2023-04-24T02:41:19;4.38;;;1.23;;
9306;SDS011;4691;47.612;7.610;2023-04-24T02:43:44;3.33;;;1.13;;
9306;SDS011;4691;47.612;7.610;2023-04-24T02:46:10;6.78;;;1.00;;
9306;SDS011;4691;47.612;7.610;2023-04-24T02:48:35;6.70;;;1.30;;
9306;SDS011;4691;47.612;7.610;2023-04-24T02:51:00;3.80;;;1.10;;
9306;SDS011;4691;47.612;7.610;2023-04-24T02:53:26;2.08;;;1.30;;
9306;SDS011;4691;47.612;7.610;2023-04-24T02:55:51;3.45;;;1.45;;
9306;SDS011;4691;47.612;7.610;2023-04-24T02:58:16;4.70;;;1.38;;
9306;SDS011;4691;47.612;7.610;2023-04-24T03:00:42;4.00;;;1.10;;
9306;SDS011;4691;47.612;7.610;2023-04-24T03:03:08;3.78;;;1.40;;
9306;SDS011;4691;47.612;7.610;2023-04-24T03:05:33;4.15;;;1.48;;
9306;SDS011;4691;47.612;7.610;2023-04-24T03:07:59;5.47;;;1.30;;
9306;SDS011;4691;47.612;7.610;2023-04-24T03:10:24;2.03;;;1.10;;
9306;SDS011;4691;47.612;7.610;2023-04-24T03:12:52;3.90;;;1.13;;
9306;SDS011;4691;47.612;7.610;2023-04-24T03:15:19;6.03;;;1.15;;
9306;SDS011;4691;47.612;7.610;2023-04-24T03:17:45;2.80;;;1.02;;
9306;SDS011;4691;47.612;7.610;2023-04-24T03:20:10;2.38;;;1.17;;
9306;SDS011;4691;47.612;7.610;2023-04-24T03:22:37;3.72;;;1.30;;
9306;SDS011;4691;47.612;7.610;2023-04-24T03:25:03;4.88;;;1.15;;
9306;SDS011;4691;47.612;7.610;2023-04-24T03:27:30;3.30;;;1.42;;
9306;SDS011;4691;47.612;7.610;2023-04-24T03:33:17;4.57;;;1.23;;
9306;SDS011;4691;47.612;7.610;2023-04-24T03:35:42;2.25;;;1.48;;
9306;SDS011;4691;47.612;7.610;2023-04-24T03:38:08;4.03;;;1.55;;
9306;SDS011;4691;47.612;7.610;2023-04-24T03:40:33;3.40;;;1.50;;
9306;SDS011;4691;47.612;7.610;2023-04-24T03:42:58;3.25;;;1.60;;
9306;SDS011;4691;47.612;7.610;2023-04-24T03:45:24;5.78;;;1.33;;
9306;SDS011;4691;47.612;7.610;2023-04-24T03:47:49;5.15;;;1.60;;
9306;SDS011;4691;47.612;7.610;2023-04-24T03:50:15;2.60;;;1.55;;
9306;SDS011;4691;47.612;7.610;2023-04-24T03:52:40;4.65;;;1.90;;
9306;SDS011;4691;47.612;7.610;2023-04-24T03:55:05;3.50;;;1.80;;
9306;SDS011;4691;47.612;7.610;2023-04-24T03:57:31;3.08;;;1.77;;
9306;SDS011;4691;47.612;7.610;2023-04-24T03:59:57;5.72;;;1.80;;
9306;SDS011;4691;47.612;7.610;2023-04-24T04:02:22;3.60;;;1.95;;
9306;SDS011;4691;47.612;7.610;2023-04-24T04:04:47;2.75;;;1.95;;
9306;SDS011;4691;47.612;7.610;2023-04-24T04:07:12;4.13;;;1.75;;
9306;SDS011;4691;47.612;7.610;2023-04-24T04:09:38;5.10;;;2.10;;
9306;SDS011;4691;47.612;7.610;2023-04-24T04:12:03;6.10;;;1.80;;
9306;SDS011;4691;47.612;7.610;2023-04-24T04:14:29;3.13;;;1.88;;
9306;SDS011;4691;47.612;7.610;2023-04-24T04:16:54;3.70;;;2.30;;
9306;SDS011;4691;47.612;7.610;2023-04-24T04:19:19;3.97;;;2.42;;
9306;SDS011;4691;47.612;7.610;2023-04-24T04:21:45;4.20;;;2.85;;
9306;SDS011;4691;47.612;7.610;2023-04-24T04:24:10;3.78;;;2.58;;
9306;SDS011;4691;47.612;7.610;2023-04-24T04:26:37;3.63;;;2.55;;
9306;SDS011;4691;47.612;7.610;2023-04-24T04:29:02;12.10;;;2.95;;
9306;SDS011;4691;47.612;7.610;2023-04-24T04:31:28;5.57;;;2.90;;
9306;SDS011;4691;47.612;7.610;2023-04-24T04:33:55;4.38;;;3.00;;
9306;SDS011;4691;47.612;7.610;2023-04-24T04:36:20;7.00;;;3.20;;
9306;SDS011;4691;47.612;7.610;2023-04-24T04:38:45;8.23;;;3.03;;
9306;SDS011;4691;47.612;7.610;2023-04-24T04:41:10;9.48;;;3.38;;
9306;SDS011;4691;47.612;7.610;2023-04-24T04:43:36;8.13;;;3.00;;
9306;SDS011;4691;47.612;7.610;2023-04-24T04:46:03;5.25;;;2.83;;
9306;SDS011;4691;47.612;7.610;2023-04-24T04:48:28;7.88;;;3.20;;
9306;SDS011;4691;47.612;7.610;2023-04-24T04:50:53;8.43;;;3.53;;
9306;SDS011;4691;47.612;7.610;2023-04-24T04:53:19;6.30;;;3.58;;
9306;SDS011;4691;47.612;7.610;2023-04-24T04:55:44;4.80;;;3.28;;
9306;SDS011;4691;47.612;7.610;2023-04-24T04:58:11;5.55;;;3.25;;
9306;SDS011;4691;47.612;7.610;2023-04-24T05:00:36;5.68;;;3.53;;
9306;SDS011;4691;47.612;7.610;2023-04-24T05:03:02;5.07;;;3.30;;
9306;SDS011;4691;47.612;7.610;2023-04-24T05:05:28;5.45;;;3.38;;
9306;SDS011;4691;47.612;7.610;2023-04-24T05:07:53;7.57;;;3.47;;
9306;SDS011;4691;47.612;7.610;2023-04-24T05:10:18;9.00;;;3.75;;
9306;SDS011;4691;47.612;7.610;2023-04-24T05:12:44;9.10;;;4.22;;
9306;SDS011;4691;47.612;7.610;2023-04-24T05:15:09;6.10;;;3.92;;
9306;SDS011;4691;47.612;7.610;2023-04-24T05:17:35;7.75;;;4.07;;
9306;SDS011;4691;47.612;7.610;2023-04-24T05:20:01;6.70;;;3.88;;
9306;SDS011;4691;47.612;7.610;2023-04-24T05:22:30;6.45;;;3.88;;
9306;SDS011;4691;47.612;7.610;2023-04-24T05:24:55;5.90;;;4.45;;
9306;SDS011;4691;47.612;7.610;2023-04-24T05:27:21;12.52;;;4.68;;
9306;SDS011;4691;47.612;7.610;2023-04-24T05:29:46;7.53;;;4.30;;
9306;SDS011;4691;47.612;7.610;2023-04-24T05:32:12;5.93;;;4.20;;
9306;SDS011;4691;47.612;7.610;2023-04-24T05:34:37;9.32;;;4.30;;
9306;SDS011;4691;47.612;7.610;2023-04-24T05:37:02;7.10;;;4.53;;
9306;SDS011;4691;47.612;7.610;2023-04-24T05:39:28;7.10;;;4.47;;
9306;SDS011;4691;47.612;7.610;2023-04-24T05:41:53;9.00;;;4.90;;
9306;SDS011;4691;47.612;7.610;2023-04-24T05:44:18;8.32;;;4.40;;
9306;SDS011;4691;47.612;7.610;2023-04-24T05:46:44;9.02;;;4.45;;
9306;SDS011;4691;47.612;7.610;2023-04-24T05:49:09;9.80;;;4.50;;
9306;SDS011;4691;47.612;7.610;2023-04-24T05:51:35;9.15;;;4.25;;
9306;SDS011;4691;47.612;7.610;2023-04-24T05:54:00;12.68;;;4.50;;
9306;SDS011;4691;47.612;7.610;2023-04-24T05:56:26;7.32;;;4.20;;
9306;SDS011;4691;47.612;7.610;2023-04-24T05:58:51;9.98;;;4.68;;
9306;SDS011;4691;47.612;7.610;2023-04-24T06:01:16;9.90;;;4.78;;
9306;SDS011;4691;47.612;7.610;2023-04-24T06:03:43;8.77;;;4.60;;
9306;SDS011;4691;47.612;7.610;2023-04-24T06:06:08;6.90;;;4.40;;
9306;SDS011;4691;47.612;7.610;2023-04-24T06:08:36;8.77;;;4.78;;
9306;SDS011;4691;47.612;7.610;2023-04-24T06:11:02;10.10;;;4.78;;
9306;SDS011;4691;47.612;7.610;2023-04-24T06:13:27;10.95;;;5.18;;
9306;SDS011;4691;47.612;7.610;2023-04-24T06:15:52;5.45;;;2.80;;
9306;SDS011;4691;47.612;7.610;2023-04-24T06:18:18;5.60;;;2.63;;
9306;SDS011;4691;47.612;7.610;2023-04-24T06:20:44;6.25;;;2.55;;
9306;SDS011;4691;47.612;7.610;2023-04-24T06:23:10;5.75;;;2.72;;
9306;SDS011;4691;47.612;7.610;2023-04-24T06:25:38;6.43;;;3.30;;
9306;SDS011;4691;47.612;7.610;2023-04-24T06:28:03;5.45;;;3.10;;
9306;SDS011;4691;47.612;7.610;2023-04-24T06:30:29;7.22;;;3.30;;
9306;SDS011;4691;47.612;7.610;2023-04-24T06:32:55;7.90;;;3.55;;
9306;SDS011;4691;47.612;7.610;2023-04-24T06:35:20;8.38;;;3.72;;
9306;SDS011;4691;47.612;7.610;2023-04-24T06:37:46;6.00;;;3.78;;
9306;SDS011;4691;47.612;7.610;2023-04-24T06:40:11;8.65;;;4.28;;
9306;SDS011;4691;47.612;7.610;2023-04-24T06:42:37;8.52;;;4.57;;
9306;SDS011;4691;47.612;7.610;2023-04-24T06:45:02;6.43;;;4.10;;
9306;SDS011;4691;47.612;7.610;2023-04-24T06:47:28;8.93;;;4.35;;
9306;SDS011;4691;47.612;7.610;2023-04-24T06:49:54;10.02;;;4.75;;
9306;SDS011;4691;47.612;7.610;2023-04-24T06:52:20;11.65;;;4.75;;
9306;SDS011;4691;47.612;7.610;2023-04-24T06:54:45;9.50;;;4.78;;
9306;SDS011;4691;47.612;7.610;2023-04-24T06:57:11;11.18;;;4.35;;
9306;SDS011;4691;47.612;7.610;2023-04-24T06:59:36;10.00;;;5.00;;
9306;SDS011;4691;47.612;7.610;2023-04-24T07:02:02;10.10;;;4.75;;
9306;SDS011;4691;47.612;7.610;2023-04-24T07:04:28;11.02;;;4.78;;
9306;SDS011;4691;47.612;7.610;2023-04-24T07:06:53;7.90;;;4.40;;
9306;SDS011;4691;47.612;7.610;2023-04-24T07:09:23;5.78;;;4.03;;
9306;SDS011;4691;47.612;7.610;2023-04-24T07:11:50;8.48;;;4.57;;
9306;SDS011;4691;47.612;7.610;2023-04-24T07:14:16;7.28;;;4.50;;
9306;SDS011;4691;47.612;7.610;2023-04-24T07:16:42;6.13;;;4.40;;
9306;SDS011;4691;47.612;7.610;2023-04-24T07:19:08;10.13;;;4.60;;
9306;SDS011;4691;47.612;7.610;2023-04-24T07:21:33;11.57;;;4.55;;
9306;SDS011;4691;47.612;7.610;2023-04-24T07:23:58;8.73;;;4.97;;
9306;SDS011;4691;47.612;7.610;2023-04-24T07:26:25;8.57;;;5.28;;
9306;SDS011;4691;47.612;7.610;2023-04-24T07:28:51;13.32;;;5.13;;
9306;SDS011;4691;47.612;7.610;2023-04-24T07:31:16;10.15;;;4.97;;
9306;SDS011;4691;47.612;7.610;2023-04-24T07:33:42;9.63;;;4.70;;
9306;SDS011;4691;47.612;7.610;2023-04-24T07:36:07;8.30;;;4.15;;
9306;SDS011;4691;47.612;7.610;2023-04-24T07:38:32;10.40;;;4.40;;
9306;SDS011;4691;47.612;7.610;2023-04-24T07:40:58;5.70;;;3.92;;
9306;SDS011;4691;47.612;7.610;2023-04-24T07:43:23;7.70;;;4.43;;
9306;SDS011;4691;47.612;7.610;2023-04-24T07:45:51;10.38;;;4.68;;
9306;SDS011;4691;47.612;7.610;2023-04-24T07:48:17;15.40;;;5.55;;
9306;SDS011;4691;47.612;7.610;2023-04-24T07:50:43;9.48;;;4.20;;
9306;SDS011;4691;47.612;7.610;2023-04-24T07:53:09;6.95;;;4.30;;
9306;SDS011;4691;47.612;7.610;2023-04-24T07:55:34;13.13;;;4.15;;
9306;SDS011;4691;47.612;7.610;2023-04-24T07:58:00;5.47;;;3.45;;
9306;SDS011;4691;47.612;7.610;2023-04-24T08:00:25;11.98;;;4.20;;
9306;SDS011;4691;47.612;7.610;2023-04-24T08:02:51;7.35;;;3.50;;
9306;SDS011;4691;47.612;7.610;2023-04-24T08:05:16;10.82;;;3.90;;
9306;SDS011;4691;47.612;7.610;2023-04-24T08:07:41;5.60;;;3.70;;
9306;SDS011;4691;47.612;7.610;2023-04-24T08:10:08;6.22;;;3.70;;
9306;SDS011;4691;47.612;7.610;2023-04-24T08:12:35;10.48;;;3.78;;
9306;SDS011;4691;47.612;7.610;2023-04-24T08:15:00;12.05;;;3.83;;
9306;SDS011;4691;47.612;7.610;2023-04-24T08:17:26;6.95;;;3.38;;
9306;SDS011;4691;47.612;7.610;2023-04-24T08:19:51;9.20;;;3.45;;
9306;SDS011;4691;47.612;7.610;2023-04-24T08:22:18;8.60;;;3.70;;
9306;SDS011;4691;47.612;7.610;2023-04-24T08:24:43;9.10;;;3.60;;
9306;SDS011;4691;47.612;7.610;2023-04-24T08:27:09;10.30;;;3.67;;
9306;SDS011;4691;47.612;7.610;2023-04-24T08:29:35;8.27;;;4.47;;
9306;SDS011;4691;47.612;7.610;2023-04-24T08:32:00;13.00;;;4.10;;
9306;SDS011;4691;47.612;7.610;2023-04-24T08:34:26;5.63;;;3.60;;
9306;SDS011;4691;47.612;7.610;2023-04-24T08:36:51;5.13;;;3.40;;
9306;SDS011;4691;47.612;7.610;2023-04-24T08:39:16;7.07;;;3.22;;
9306;SDS011;4691;47.612;7.610;2023-04-24T08:41:43;10.10;;;3.53;;
9306;SDS011;4691;47.612;7.610;2023-04-24T08:44:08;11.25;;;3.50;;
9306;SDS011;4691;47.612;7.610;2023-04-24T08:46:34;6.82;;;3.78;;
9306;SDS011;4691;47.612;7.610;2023-04-24T08:49:00;9.70;;;4.30;;
9306;SDS011;4691;47.612;7.610;2023-04-24T08:51:27;11.75;;;3.90;;
9306;SDS011;4691;47.612;7.610;2023-04-24T08:53:53;8.32;;;3.67;;
9306;SDS011;4691;47.612;7.610;2023-04-24T08:56:20;7.97;;;3.67;;
9306;SDS011;4691;47.612;7.610;2023-04-24T08:58:48;6.65;;;3.20;;
9306;SDS011;4691;47.612;7.610;2023-04-24T09:01:15;7.22;;;3.15;;
9306;SDS011;4691;47.612;7.610;2023-04-24T09:03:40;9.70;;;3.58;;
9306;SDS011;4691;47.612;7.610;2023-04-24T09:06:06;6.57;;;3.25;;
9306;SDS011;4691;47.612;7.610;2023-04-24T09:08:33;11.88;;;3.70;;
9306;SDS011;4691;47.612;7.610;2023-04-24T09:10:58;5.50;;;3.20;;
9306;SDS011;4691;47.612;7.610;2023-04-24T09:13:26;7.72;;;3.67;;
9306;SDS011;4691;47.612;7.610;2023-04-24T09:15:52;8.38;;;3.50;;
9306;SDS011;4691;47.612;7.610;2023-04-24T09:18:19;7.97;;;3.83;;
9306;SDS011;4691;47.612;7.610;2023-04-24T09:20:57;9.75;;;3.45;;
9306;SDS011;4691;47.612;7.610;2023-04-24T09:23:25;12.13;;;3.92;;
9306;SDS011;4691;47.612;7.610;2023-04-24T09:25:54;6.90;;;3.40;;
9306;SDS011;4691;47.612;7.610;2023-04-24T09:28:22;9.88;;;4.15;;
9306;SDS011;4691;47.612;7.610;2023-04-24T09:31:01;9.38;;;4.00;;
9306;SDS011;4691;47.612;7.610;2023-04-24T09:33:31;5.57;;;3.78;;
9306;SDS011;4691;47.612;7.610;2023-04-24T09:35:57;7.65;;;3.78;;
9306;SDS011;4691;47.612;7.610;2023-04-24T09:38:30;8.75;;;4.15;;
9306;SDS011;4691;47.612;7.610;2023-04-24T09:41:01;11.30;;;4.07;;
9306;SDS011;4691;47.612;7.610;2023-04-24T09:43:28;7.47;;;3.60;;
9306;SDS011;4691;47.612;7.610;2023-04-24T09:45:57;11.50;;;4.65;;
9306;SDS011;4691;47.612;7.610;2023-04-24T09:48:30;9.20;;;3.97;;
9306;SDS011;4691;47.612;7.610;2023-04-24T09:50:57;7.10;;;3.50;;
9306;SDS011;4691;47.612;7.610;2023-04-24T09:53:23;7.82;;;3.70;;
9306;SDS011;4691;47.612;7.610;2023-04-24T09:55:49;9.80;;;3.92;;
9306;SDS011;4691;47.612;7.610;2023-04-24T09:58:15;7.53;;;3.47;;
9306;SDS011;4691;47.612;7.610;2023-04-24T10:00:40;9.80;;;4.00;;
9306;SDS011;4691;47.612;7.610;2023-04-24T10:03:06;7.32;;;3.75;;
9306;SDS011;4691;47.612;7.610;2023-04-24T10:05:33;8.00;;;3.30;;
9306;SDS011;4691;47.612;7.610;2023-04-24T10:10:29;12.32;;;3.38;;
9306;SDS011;4691;47.612;7.610;2023-04-24T10:12:56;6.85;;;3.85;;
9306;SDS011;4691;47.612;7.610;2023-04-24T10:15:21;11.00;;;3.58;;
9306;SDS011;4691;47.612;7.610;2023-04-24T10:17:50;6.85;;;3.42;;
9306;SDS011;4691;47.612;7.610;2023-04-24T10:20:20;5.93;;;3.15;;
9306;SDS011;4691;47.612;7.610;2023-04-24T10:22:48;7.95;;;3.63;;
9306;SDS011;4691;47.612;7.610;2023-04-24T10:25:20;8.40;;;3.85;;
9306;SDS011;4691;47.612;7.610;2023-04-24T10:30:13;6.75;;;3.90;;
9306;SDS011;4691;47.612;7.610;2023-04-24T10:32:39;6.40;;;3.40;;
9306;SDS011;4691;47.612;7.610;2023-04-24T10:35:05;11.35;;;4.97;;
9306;SDS011;4691;47.612;7.610;2023-04-24T10:37:35;7.63;;;4.10;;
9306;SDS011;4691;47.612;7.610;2023-04-24T10:40:03;4.93;;;3.55;;
9306;SDS011;4691;47.612;7.610;2023-04-24T10:42:29;8.23;;;3.53;;
9306;SDS011;4691;47.612;7.610;2023-04-24T10:44:54;5.63;;;3.80;;
9306;SDS011;4691;47.612;7.610;2023-04-24T10:47:23;8.45;;;3.60;;
9306;SDS011;4691;47.612;7.610;2023-04-24T10:49:51;7.13;;;4.00;;
9306;SDS011;4691;47.612;7.610;2023-04-24T10:52:16;8.10;;;3.58;;
9306;SDS011;4691;47.612;7.610;2023-04-24T10:54:46;8.73;;;3.35;;
9306;SDS011;4691;47.612;7.610;2023-04-24T10:59:50;5.75;;;4.05;;
9306;SDS011;4691;47.612;7.610;2023-04-24T11:02:38;12.70;;;4.25;;
9306;SDS011;4691;47.612;7.610;2023-04-24T11:05:05;7.45;;;3.63;;
9306;SDS011;4691;47.612;7.610;2023-04-24T11:10:37;7.47;;;3.40;;
9306;SDS011;4691;47.612;7.610;2023-04-24T11:13:08;5.15;;;3.70;;
9306;SDS011;4691;47.612;7.610;2023-04-24T11:15:33;6.85;;;3.65;;
9306;SDS011;4691;47.612;7.610;2023-04-24T11:17:59;11.02;;;3.90;;
9306;SDS011;4691;47.612;7.610;2023-04-24T11:20:25;7.43;;;3.70;;
9306;SDS011;4691;47.612;7.610;2023-04-24T11:22:52;10.70;;;3.53;;
9306;SDS011;4691;47.612;7.610;2023-04-24T11:25:22;7.30;;;3.30;;
9306;SDS011;4691;47.612;7.610;2023-04-24T11:27:48;6.35;;;3.55;;
9306;SDS011;4691;47.612;7.610;2023-04-24T11:30:18;9.10;;;3.45;;
9306;SDS011;4691;47.612;7.610;2023-04-24T11:32:48;6.63;;;3.50;;
9306;SDS011;4691;47.612;7.610;2023-04-24T11:35:17;5.70;;;3.25;;
9306;SDS011;4691;47.612;7.610;2023-04-24T11:37:52;6.22;;;3.30;;
9306;SDS011;4691;47.612;7.610;2023-04-24T11:40:19;10.63;;;3.47;;
9306;SDS011;4691;47.612;7.610;2023-04-24T11:42:46;7.90;;;3.38;;
9306;SDS011;4691;47.612;7.610;2023-04-24T11:45:13;5.68;;;3.40;;
9306;SDS011;4691;47.612;7.610;2023-04-24T11:47:40;9.90;;;3.72;;
9306;SDS011;4691;47.612;7.610;2023-04-24T11:50:07;6.15;;;3.80;;
9306;SDS011;4691;47.612;7.610;2023-04-24T11:52:41;4.03;;;3.05;;
9306;SDS011;4691;47.612;7.610;2023-04-24T11:57:41;16.90;;;4.07;;
9306;SDS011;4691;47.612;7.610;2023-04-24T12:00:14;8.68;;;4.00;;
9306;SDS011;4691;47.612;7.610;2023-04-24T12:02:41;9.30;;;3.95;;
9306;SDS011;4691;47.612;7.610;2023-04-24T12:05:06;9.20;;;4.05;;
9306;SDS011;4691;47.612;7.610;2023-04-24T12:07:36;9.00;;;4.30;;
9306;SDS011;4691;47.612;7.610;2023-04-24T12:10:07;7.43;;;3.85;;
9306;SDS011;4691;47.612;7.610;2023-04-24T12:12:34;8.93;;;4.72;;
9306;SDS011;4691;47.612;7.610;2023-04-24T12:15:00;8.27;;;4.32;;
9306;SDS011;4691;47.612;7.610;2023-04-24T12:17:27;9.57;;;4.20;;
9306;SDS011;4691;47.612;7.610;2023-04-24T12:19:57;11.68;;;4.82;;
9306;SDS011;4691;47.612;7.610;2023-04-24T12:22:25;6.45;;;3.80;;
9306;SDS011;4691;47.612;7.610;2023-04-24T12:24:57;9.15;;;4.20;;
9306;SDS011;4691;47.612;7.610;2023-04-24T12:27:32;8.38;;;3.50;;
9306;SDS011;4691;47.612;7.610;2023-04-24T12:30:01;6.93;;;3.65;;
9306;SDS011;4691;47.612;7.610;2023-04-24T12:32:29;6.68;;;3.47;;
9306;SDS011;4691;47.612;7.610;2023-04-24T12:34:54;5.70;;;3.33;;
9306;SDS011;4691;47.612;7.610;2023-04-24T12:37:20;6.47;;;3.60;;
9306;SDS011;4691;47.612;7.610;2023-04-24T12:40:07;7.22;;;3.40;;
9306;SDS011;4691;47.612;7.610;2023-04-24T12:42:34;7.03;;;4.15;;
9306;SDS011;4691;47.612;7.610;2023-04-24T12:45:02;5.20;;;3.97;;
9306;SDS011;4691;47.612;7.610;2023-04-24T12:47:30;7.13;;;3.95;;
9306;SDS011;4691;47.612;7.610;2023-04-24T12:49:58;7.38;;;3.47;;
9306;SDS011;4691;47.612;7.610;2023-04-24T12:52:24;13.48;;;4.53;;
9306;SDS011;4691;47.612;7.610;2023-04-24T12:54:52;5.18;;;3.60;;
9306;SDS011;4691;47.612;7.610;2023-04-24T12:57:19;8.32;;;3.88;;
9306;SDS011;4691;47.612;7.610;2023-04-24T12:59:45;4.53;;;3.60;;
9306;SDS011;4691;47.612;7.610;2023-04-24T13:02:13;9.68;;;4.10;;
9306;SDS011;4691;47.612;7.610;2023-04-24T13:04:39;9.10;;;3.70;;
9306;SDS011;4691;47.612;7.610;2023-04-24T13:07:05;7.68;;;3.83;;
9306;SDS011;4691;47.612;7.610;2023-04-24T13:09:34;8.57;;;3.53;;
9306;SDS011;4691;47.612;7.610;2023-04-24T13:11:59;5.95;;;3.60;;
9306;SDS011;4691;47.612;7.610;2023-04-24T13:14:27;6.63;;;3.75;;
9306;SDS011;4691;47.612;7.610;2023-04-24T13:16:53;6.60;;;3.92;;
9306;SDS011;4691;47.612;7.610;2023-04-24T13:19:18;7.38;;;3.70;;
9306;SDS011;4691;47.612;7.610;2023-04-24T13:21:44;7.70;;;3.85;;
9306;SDS011;4691;47.612;7.610;2023-04-24T13:24:10;5.63;;;3.55;;
9306;SDS011;4691;47.612;7.610;2023-04-24T13:26:35;5.47;;;4.00;;
9306;SDS011;4691;47.612;7.610;2023-04-24T13:29:00;6.75;;;3.50;;
9306;SDS011;4691;47.612;7.610;2023-04-24T13:31:25;7.53;;;3.95;;
9306;SDS011;4691;47.612;7.610;2023-04-24T13:33:51;7.45;;;3.55;;
9306;SDS011;4691;47.612;7.610;2023-04-24T13:36:16;9.00;;;3.78;;
9306;SDS011;4691;47.612;7.610;2023-04-24T13:38:43;21.05;;;5.25;;
9306;SDS011;4691;47.612;7.610;2023-04-24T13:41:09;15.82;;;4.03;;
9306;SDS011;4691;47.612;7.610;2023-04-24T13:43:35;17.48;;;3.80;;
9306;SDS011;4691;47.612;7.610;2023-04-24T13:46:00;17.25;;;4.00;;
9306;SDS011;4691;47.612;7.610;2023-04-24T13:48:27;7.93;;;3.67;;
9306;SDS011;4691;47.612;7.610;2023-04-24T13:50:53;6.53;;;3.67;;
9306;SDS011;4691;47.612;7.610;2023-04-24T13:53:18;8.15;;;3.95;;
9306;SDS011;4691;47.612;7.610;2023-04-24T13:55:44;8.10;;;4.20;;
9306;SDS011;4691;47.612;7.610;2023-04-24T13:58:09;37.65;;;9.52;;
9306;SDS011;4691;47.612;7.610;2023-04-24T14:00:35;7.85;;;4.00;;
9306;SDS011;4691;47.612;7.610;2023-04-24T14:03:00;5.22;;;3.80;;
9306;SDS011;4691;47.612;7.610;2023-04-24T14:05:26;75.85;;;14.07;;
9306;SDS011;4691;47.612;7.610;2023-04-24T14:07:51;7.30;;;3.90;;
9306;SDS011;4691;47.612;7.610;2023-04-24T14:10:16;8.90;;;4.05;;
9306;SDS011;4691;47.612;7.610;2023-04-24T14:12:42;5.85;;;3.42;;
9306;SDS011;4691;47.612;7.610;2023-04-24T14:15:10;7.90;;;3.75;;
9306;SDS011;4691;47.612;7.610;2023-04-24T14:17:37;6.97;;;3.50;;
9306;SDS011;4691;47.612;7.610;2023-04-24T14:20:02;6.38;;;3.50;;
9306;SDS011;4691;47.612;7.610;2023-04-24T14:22:29;8.85;;;3.70;;
9306;SDS011;4691;47.612;7.610;2023-04-24T14:24:54;6.80;;;3.80;;
9306;SDS011;4691;47.612;7.610;2023-04-24T14:27:19;6.55;;;3.50;;
9306;SDS011;4691;47.612;7.610;2023-04-24T14:29:45;6.00;;;3.92;;
9306;SDS011;4691;47.612;7.610;2023-04-24T14:32:10;10.18;;;4.15;;
9306;SDS011;4691;47.612;7.610;2023-04-24T14:34:36;6.88;;;3.92;;
9306;SDS011;4691;47.612;7.610;2023-04-24T14:37:01;12.45;;;4.00;;
9306;SDS011;4691;47.612;7.610;2023-04-24T14:39:27;8.30;;;4.03;;
9306;SDS011;4691;47.612;7.610;2023-04-24T14:41:53;6.15;;;3.83;;
9306;SDS011;4691;47.612;7.610;2023-04-24T14:44:18;7.13;;;3.92;;
9306;SDS011;4691;47.612;7.610;2023-04-24T14:46:43;7.25;;;4.25;;
9306;SDS011;4691;47.612;7.610;2023-04-24T14:49:09;6.55;;;4.00;;
9306;SDS011;4691;47.612;7.610;2023-04-24T14:51:35;8.27;;;4.03;;
9306;SDS011;4691;47.612;7.610;2023-04-24T14:54:01;6.30;;;4.03;;
9306;SDS011;4691;47.612;7.610;2023-04-24T14:56:26;5.93;;;4.07;;
9306;SDS011;4691;47.612;7.610;2023-04-24T14:58:52;7.60;;;4.50;;
9306;SDS011;4691;47.612;7.610;2023-04-24T15:01:18;6.28;;;4.30;;
9306;SDS011;4691;47.612;7.610;2023-04-24T15:03:43;9.15;;;4.30;;
9306;SDS011;4691;47.612;7.610;2023-04-24T15:06:08;11.32;;;4.35;;
9306;SDS011;4691;47.612;7.610;2023-04-24T15:08:34;9.55;;;4.18;;
9306;SDS011;4691;47.612;7.610;2023-04-24T15:10:59;12.93;;;4.50;;
9306;SDS011;4691;47.612;7.610;2023-04-24T15:13:25;9.77;;;4.63;;
9306;SDS011;4691;47.612;7.610;2023-04-24T15:15:53;9.23;;;4.70;;
9306;SDS011;4691;47.612;7.610;2023-04-24T15:18:21;8.75;;;4.90;;
9306;SDS011;4691;47.612;7.610;2023-04-24T15:20:47;14.07;;;5.35;;
9306;SDS011;4691;47.612;7.610;2023-04-24T15:23:12;11.13;;;5.28;;
9306;SDS011;4691;47.612;7.610;2023-04-24T15:25:38;12.23;;;4.97;;